Terminal Aerodrome Forecast
Issued by NWS

Home | Current Version | Previous Version | Text Only | Print | Product List | Glossary On
Versions: 1 2 3 4 5 6 7 8 9 10 11 12 13 14 15 16 17 18 19 20 21 22 23 24 25 26
000
FTUS43 KDLH 240800 AAA
TAFHIB
TAF AMD
KHIB 240800Z 2408/2506 30007KT P6SM OVC013
      TEMPO 2408/2412 SCT015 OVC025
     FM241600 VRB05KT P6SM -SN OVC007
     FM250000 06006KT P6SM -SN OVC015=

USA.gov is the U.S. government's official web portal to all federal, state and local government web resources and services.